• Join FlightAware (Why Join?)
  • Login
  • US Flag 
04:58AM EDT


 

Airport Tracker/Info


-or-


 

Live Flight TrackerFlight Track Log ✈ TRS310 ✈ 12-Jul-2013 ✈ KGRR - KMCO

Flight Track Log - Related Links

Times and Time Zones

All times are in EDT time to prevent confusion due to time zone crossing. See the TRS310 flight status page for this flight to view local times or setup timezone preferences in your user account.

Time Position Orientation Groundspeed Altitude Reporting Facility
EDT Latitude Longitude Course Direction KTS MPH feet Rate Location/Type
12:24PM 42.8200 -85.5036 173° South 197 227 2,800  Level Chicago Center
12:25PM 42.7414 -85.4889 172° South 237 273 4,600 1,800 Climbing Chicago Center
12:26PM 42.6644 -85.4769 173° South 269 310 6,600 2,040 Climbing Chicago Center
12:27PM 42.5825 -85.4622 172° South 289 333 8,900 1,740 Climbing Chicago Center
12:28PM 42.4969 -85.4472 173° South 305 351 10,300 1,200 Climbing Chicago Center
12:29PM 42.1887 -85.2795 173° South  Level Estimated
12:29PM 42.3944 -85.4286 172° South 363 418 11,400  Level Chicago Center
12:30PM 42.2892 -85.4119 173° South 378 435 13,100 1,740 Climbing Chicago Center
12:31PM 42.1803 -85.3925 172° South 390 449 15,000 1,860 Climbing Chicago Center
12:32PM 42.0458 -85.3622 171° South 405 466 17,000 1,440 Climbing Chicago Center
12:33PM 41.9467 -85.3183 162° South 408 470 18,100 1,260 Climbing Chicago Center
12:34PM 41.8300 -85.2722 164° South 428 493 19,700 1,560 Climbing Chicago Center
12:35PM 41.7044 -85.2433 170° South 449 517 21,400 1,500 Climbing Chicago Center
12:36PM 41.5689 -85.2319 176° South 471 542 22,900 1,500 Climbing Chicago Center
12:37PM 41.4083 -85.2078 174° South 478 550 24,500 1,380 Climbing Chicago Center
12:38PM 41.2736 -85.1783 171° South 485 558 25,800 1,080 Climbing Chicago Center
12:39PM 41.1372 -85.1508 171° South 492 566 26,800 960 Climbing Chicago Center
12:40PM 40.9967 -85.1203 171° South 506 582 27,800 1,020 Climbing Chicago Center
12:41PM 40.8544 -85.0911 171° South 514 592 29,000 1,080 Climbing Chicago Center
12:42PM 40.7119 -85.0625 171° South 518 596 30,100 1,080 Climbing Chicago Center
12:43PM 40.6011 -85.0397 171° South 519 597 30,900 1,200 Climbing Indianapolis Center
12:44PM 40.4572 -85.0119 172° South 522 601 32,200 960 Climbing Indianapolis Center
12:45PM 40.3167 -84.9825 171° South 513 590 33,000 360 Climbing Indianapolis Center
12:46PM 40.1725 -84.9528 171° South 520 598 33,000  Level Indianapolis Center
12:47PM 40.0303 -84.9253 172° South 517 595 33,000  Level Indianapolis Center
12:48PM 39.8703 -84.8931 171° South 511 588 33,000  Level Indianapolis Center
12:49PM 39.7272 -84.8636 171° South 515 593 33,000  Level Indianapolis Center
12:50PM 39.5853 -84.8358 171° South 514 592 33,000  Level Indianapolis Center
12:51PM 39.4422 -84.8086 172° South 516 594 33,000  Level Indianapolis Center
12:52PM 39.2992 -84.7803 171° South 517 595 33,000  Level Indianapolis Center
12:53PM 39.1536 -84.7514 171° South 524 603 33,000  Level Indianapolis Center
12:54PM 39.0092 -84.7242 172° South 523 602 33,000  Level Indianapolis Center
12:55PM 38.8619 -84.6950 171° South 522 601 33,000  Level Indianapolis Center
12:56PM 38.7178 -84.6661 171° South 524 603 33,000  Level Indianapolis Center
12:57PM 38.5447 -84.6344 172° South 532 612 33,000  Level Indianapolis Center
12:58PM 38.3986 -84.6078 172° South 531 611 33,000  Level Indianapolis Center
12:59PM 38.2556 -84.5772 170° South 525 604 33,000  Level Indianapolis Center
01:01PM 38.1083 -84.5492 171° South 530 610 33,000  Level Indianapolis Center
01:02PM 37.9369 -84.5167 171° South 533 613 33,000  Level Indianapolis Center
01:03PM 37.7911 -84.4908 172° South 529 609 33,000  Level Indianapolis Center
01:04PM 37.6436 -84.4633 172° South 533 613 33,000  Level Indianapolis Center
01:05PM 37.4989 -84.4347 171° South 528 608 33,000  Level Indianapolis Center
01:06PM 37.3542 -84.4069 171° South 526 605 33,000  Level Indianapolis Center
01:07PM 37.2097 -84.3822 172° South 522 601 33,000  Level Indianapolis Center
01:08PM 37.0431 -84.3514 172° South 518 596 33,000  Level Indianapolis Center
01:09PM 36.8994 -84.3244 171° South 520 598 33,000  Level Indianapolis Center
01:10PM 36.7581 -84.2989 172° South 515 593 33,000  Level Indianapolis Center
01:11PM 36.6172 -84.2728 172° South 512 589 33,000  Level Indianapolis Center
01:12PM 36.4578 -84.2433 172° South 508 585 33,000  Level Indianapolis Center
01:13PM 36.3172 -84.2175 172° South 507 583 33,000  Level Indianapolis Center
01:14PM 36.1767 -84.1917 172° South 507 583 33,000  Level Indianapolis Center
01:14PM 36.0958 -84.1800 173° South 514 592 33,000  Level Atlanta Center
01:15PM 35.9747 -84.1567 171° South 509 586 33,000  Level Atlanta Center
01:16PM 35.8372 -84.1308 171° South 504 580 33,000  Level Atlanta Center
01:17PM 35.7036 -84.1078 172° South 497 572 33,000  Level Atlanta Center
01:18PM 35.5703 -84.0872 173° South 492 566 33,000  Level Atlanta Center
01:19PM 35.4386 -84.0617 171° South 487 560 33,000  Level Atlanta Center
01:20PM 35.3094 -84.0414 173° South 481 554 33,000  Level Atlanta Center
01:21PM 35.1842 -84.0183 171° South 471 542 33,000  Level Atlanta Center
01:22PM 35.0631 -83.9981 172° South 459 528 33,000  Level Atlanta Center
01:23PM 34.9400 -83.9781 172° South 449 517 33,000  Level Atlanta Center
01:24PM 34.8189 -83.9578 172° South 443 510 33,000  Level Atlanta Center
01:25PM 34.7000 -83.9353 171° South 443 510 33,000  Level Atlanta Center
01:26PM 34.5706 -83.9075 170° South 435 501 33,000  Level Atlanta Center
01:27PM 34.4517 -83.8875 172° South 435 501 33,000  Level Atlanta Center
01:28PM 34.3325 -83.8678 172° South 430 495 33,000  Level Atlanta Center
01:29PM 34.2178 -83.8478 172° South 425 489 33,000  Level Atlanta Center
01:30PM 34.0989 -83.8256 171° South 430 495 33,000  Level Atlanta Center
01:31PM 33.9922 -83.8058 171° South 430 495 33,000  Level Atlanta Center
01:32PM 33.8733 -83.7861 172° South 430 495 33,000  Level Atlanta Center
01:33PM 33.7542 -83.7689 173° South 430 495 33,000  Level Atlanta Center
01:34PM 33.6394 -83.7469 171° South 423 487 33,000  Level Atlanta Center
01:35PM 33.5203 -83.7297 173° South 428 493 33,000  Level Atlanta Center
01:36PM 33.3908 -83.7078 172° South 428 493 33,000  Level Atlanta Center
01:37PM 33.2761 -83.6883 172° South 428 493 33,000  Level Atlanta Center
01:38PM 33.1569 -83.6667 171° South 428 493 33,000  Level Atlanta Center
01:39PM 33.0442 -83.6497 173° South 423 487 33,000  Level Atlanta Center
01:40PM 32.9253 -83.6331 173° South 428 493 33,000  Level Atlanta Center
01:41PM 32.8083 -83.6111 171° South 428 493 33,000  Level Atlanta Center
01:42PM 32.6914 -83.5922 172° South 428 493 33,000  Level Atlanta Center
01:43PM 32.5744 -83.5731 172° South 428 493 33,000  Level Atlanta Center
01:44PM 32.4594 -83.5539 172° South 428 493 33,000  Level Atlanta Center
01:45PM 32.3550 -83.5347 171° South 428 493 33,000  Level Atlanta Center
01:47PM 32.1506 -83.5011 172° South 432 497 33,000  Level Jacksonville Center
01:48PM 32.0336 -83.4808 172° South 432 497 33,000  Level Jacksonville Center
01:49PM 31.9042 -83.4578 171° South 432 497 33,000  Level Jacksonville Center
01:50PM 31.7833 -83.4400 173° South 432 497 33,000  Level Jacksonville Center
01:51PM 31.6644 -83.4150 170° South 432 497 33,000  Level Jacksonville Center
01:52PM 31.5539 -83.3583 156° South 432 497 33,000  Level Jacksonville Center
01:53PM 31.4414 -83.2919 153° Southeast 437 503 33,000  Level Jacksonville Center
01:54PM 31.3308 -83.2283 154° Southeast 442 509 33,000  Level Jacksonville Center
01:55PM 31.2206 -83.1622 153° Southeast 442 509 33,000  Level Jacksonville Center
01:56PM 31.1100 -83.0989 154° Southeast 447 514 33,000  Level Jacksonville Center
01:57PM 30.9994 -83.0356 154° Southeast 442 509 33,000 -960 Level Jacksonville Center
01:58PM 30.8867 -82.9725 154° Southeast 447 514 31,100 -2,340 Descending Jacksonville Center
01:59PM 30.7864 -82.9167 154° Southeast 447 514 28,400 -2,160 Descending Jacksonville Center
02:00PM 30.6736 -82.8514 154° Southeast 447 514 26,800 -1,140 Descending Jacksonville Center
02:01PM 30.5631 -82.7889 154° Southeast 447 514 26,200 -600 Descending Jacksonville Center
02:02PM 30.4564 -82.7239 152° Southeast 441 507 25,600 -660 Descending Jacksonville Center
02:03PM 30.3456 -82.6639 155° Southeast 441 507 24,900 -300 Descending Jacksonville Center
02:04PM 30.2369 -82.6042 155° Southeast 441 507 25,000  Climbing Jacksonville Center
02:05PM 30.1283 -82.5444 155° Southeast 436 502 25,000  Level Jacksonville Center
02:06PM 30.0236 -82.4847 154° Southeast 431 496 25,000  Level Jacksonville Center
02:07PM 29.9150 -82.4156 151° Southeast 431 496 25,000  Level Jacksonville Center
02:08PM 29.8103 -82.3492 151° Southeast 431 496 25,000  Level Jacksonville Center
02:09PM 29.7056 -82.2806 150° Southeast 431 496 25,000 -600 Level Jacksonville Center
02:10PM 29.6050 -82.2167 151° Southeast 431 496 23,900 -1,800 Descending Jacksonville Center
02:11PM 29.5022 -82.1506 151° Southeast 431 496 21,400 -2,400 Descending Jacksonville Center
02:12PM 29.4039 -82.0892 151° Southeast 421 484 19,100 -2,280 Descending Jacksonville Center
02:13PM 29.2992 -82.0614 167° South 389 448 16,900 -2,100 Descending Jacksonville Center
02:14PM 29.1992 -82.0506 175° South 378 435 15,000 -1,920 Descending Jacksonville Center
02:15PM 29.1008 -82.0489 179° South 365 420 13,100 -1,800 Descending Jacksonville Center
02:16PM 29.0069 -82.0331 172° South 360 414 11,500 -1,140 Descending Jacksonville Center
02:17PM 28.9603 -81.9528 124° Southeast 306 352 10,900 -540 Descending Jacksonville Center
02:18PM 28.9389 -81.8533 104° East 272 313 10,500 -1,020 Descending Jacksonville Center
02:19PM 28.9006 -81.7683 117° Southeast 283 326 8,900 -1,620 Descending Jacksonville Center
02:20PM 28.8558 -81.6931 124° Southeast 289 333 7,300 -960 Descending Jacksonville Center
02:21PM 28.8114 -81.6200 125° Southeast 289 333 7,000 -240 Descending Jacksonville Center
02:22PM 28.7711 -81.5450 121° Southeast 283 326 6,900 -300 Descending Jacksonville Center
02:23PM 28.7536 -81.4717 105° East 247 284 6,400 -1,020 Descending Jacksonville Center
02:25PM 28.7333 -81.3833 105° East 212 244 4,500 -1,140 Descending Orlando TRACON
02:26PM 28.6833 -81.3500 150° Southeast 212 244 3,800 -720 Descending Orlando TRACON
02:27PM 28.6333 -81.3333 164° South 199 229 3,100 -660 Descending Orlando TRACON
02:28PM 28.5833 -81.3333 180° South 197 227 2,500 -780 Descending Orlando TRACON
02:29PM 28.5167 -81.3333 180° South 184 212 1,600 -900 Descending Orlando TRACON
02:30PM 28.4833 -81.3333 180° South 137 158 800 -840 Descending Orlando TRACON
02:32PM 28.4294 -81.3090 180° South  Level Estimated
02:39PM 28.4294 -81.3090 24° Northeast  Level Estimated
02:40PM 28.4294 -81.3090 24° Northeast  Level Estimated
02:41PM 28.4294 -81.3090 24° Northeast  Level Estimated